sensor_id;sensor_type;location;lat;lon;timestamp;P1;durP1;ratioP1;P2;durP2;ratioP2
7881;SDS011;3986;41.884;23.466;2022-11-11T06:06:47;226.50;;;169.67;;
7881;SDS011;3986;41.884;23.466;2022-11-11T06:09:14;298.50;;;238.57;;
7881;SDS011;3986;41.884;23.466;2022-11-11T06:11:41;321.63;;;246.53;;
7881;SDS011;3986;41.884;23.466;2022-11-11T06:14:08;242.97;;;196.40;;
7881;SDS011;3986;41.884;23.466;2022-11-11T06:16:35;227.17;;;178.70;;
7881;SDS011;3986;41.884;23.466;2022-11-11T06:19:02;329.00;;;244.60;;
7881;SDS011;3986;41.884;23.466;2022-11-11T06:21:29;305.83;;;248.23;;
7881;SDS011;3986;41.884;23.466;2022-11-11T06:23:58;232.03;;;199.77;;
7881;SDS011;3986;41.884;23.466;2022-11-11T06:26:25;219.10;;;195.00;;
7881;SDS011;3986;41.884;23.466;2022-11-11T06:28:52;245.63;;;195.67;;
7881;SDS011;3986;41.884;23.466;2022-11-11T06:31:20;227.40;;;189.87;;
7881;SDS011;3986;41.884;23.466;2022-11-11T06:33:48;209.33;;;177.23;;
7881;SDS011;3986;41.884;23.466;2022-11-11T06:36:16;246.77;;;163.73;;
7881;SDS011;3986;41.884;23.466;2022-11-11T06:38:44;212.03;;;145.67;;
7881;SDS011;3986;41.884;23.466;2022-11-11T06:41:12;154.43;;;136.43;;
7881;SDS011;3986;41.884;23.466;2022-11-11T06:43:40;162.37;;;130.37;;
7881;SDS011;3986;41.884;23.466;2022-11-11T06:46:08;193.70;;;126.40;;
7881;SDS011;3986;41.884;23.466;2022-11-11T06:48:42;200.83;;;116.53;;
7881;SDS011;3986;41.884;23.466;2022-11-11T06:51:09;130.97;;;112.23;;
7881;SDS011;3986;41.884;23.466;2022-11-11T06:53:37;148.23;;;108.00;;
7881;SDS011;3986;41.884;23.466;2022-11-11T06:56:04;157.60;;;113.13;;
7881;SDS011;3986;41.884;23.466;2022-11-11T06:58:33;157.03;;;111.97;;
7881;SDS011;3986;41.884;23.466;2022-11-11T07:01:02;196.40;;;145.53;;
7881;SDS011;3986;41.884;23.466;2022-11-11T07:03:29;201.93;;;161.40;;
7881;SDS011;3986;41.884;23.466;2022-11-11T07:05:58;213.30;;;184.60;;
7881;SDS011;3986;41.884;23.466;2022-11-11T07:08:26;253.50;;;173.73;;
7881;SDS011;3986;41.884;23.466;2022-11-11T07:10:53;232.37;;;175.30;;
7881;SDS011;3986;41.884;23.466;2022-11-11T07:13:20;208.33;;;182.40;;
7881;SDS011;3986;41.884;23.466;2022-11-11T07:15:48;213.93;;;166.40;;
7881;SDS011;3986;41.884;23.466;2022-11-11T07:18:15;212.97;;;138.33;;
7881;SDS011;3986;41.884;23.466;2022-11-11T07:20:42;193.17;;;123.10;;
7881;SDS011;3986;41.884;23.466;2022-11-11T07:23:09;169.50;;;146.13;;
7881;SDS011;3986;41.884;23.466;2022-11-11T07:25:36;198.00;;;176.73;;
7881;SDS011;3986;41.884;23.466;2022-11-11T07:28:03;221.83;;;199.60;;
7881;SDS011;3986;41.884;23.466;2022-11-11T07:30:30;282.60;;;255.67;;
7881;SDS011;3986;41.884;23.466;2022-11-11T07:32:58;308.27;;;278.07;;
7881;SDS011;3986;41.884;23.466;2022-11-11T07:35:25;303.77;;;274.00;;
7881;SDS011;3986;41.884;23.466;2022-11-11T07:37:52;315.23;;;284.47;;
7881;SDS011;3986;41.884;23.466;2022-11-11T07:40:19;345.30;;;308.93;;
7881;SDS011;3986;41.884;23.466;2022-11-11T07:42:45;369.70;;;306.07;;
7881;SDS011;3986;41.884;23.466;2022-11-11T07:45:13;303.73;;;274.77;;
7881;SDS011;3986;41.884;23.466;2022-11-11T07:47:43;233.07;;;210.47;;
7881;SDS011;3986;41.884;23.466;2022-11-11T07:50:12;182.23;;;163.10;;
7881;SDS011;3986;41.884;23.466;2022-11-11T07:52:39;191.23;;;161.67;;
7881;SDS011;3986;41.884;23.466;2022-11-11T07:55:07;218.40;;;166.60;;
7881;SDS011;3986;41.884;23.466;2022-11-11T07:57:34;193.93;;;175.30;;
7881;SDS011;3986;41.884;23.466;2022-11-11T08:00:02;232.80;;;190.00;;
7881;SDS011;3986;41.884;23.466;2022-11-11T08:02:30;208.03;;;185.53;;
7881;SDS011;3986;41.884;23.466;2022-11-11T08:04:56;188.07;;;153.23;;
7881;SDS011;3986;41.884;23.466;2022-11-11T08:07:25;164.13;;;146.00;;
7881;SDS011;3986;41.884;23.466;2022-11-11T08:09:52;154.37;;;138.67;;
7881;SDS011;3986;41.884;23.466;2022-11-11T08:12:18;154.13;;;106.83;;
7881;SDS011;3986;41.884;23.466;2022-11-11T08:15:03;108.37;;;85.30;;
7881;SDS011;3986;41.884;23.466;2022-11-11T08:17:35;88.10;;;72.53;;
7881;SDS011;3986;41.884;23.466;2022-11-11T08:20:03;95.10;;;69.80;;
7881;SDS011;3986;41.884;23.466;2022-11-11T08:22:35;93.40;;;82.43;;
7881;SDS011;3986;41.884;23.466;2022-11-11T08:25:03;90.83;;;79.80;;
7881;SDS011;3986;41.884;23.466;2022-11-11T08:27:31;96.27;;;75.97;;
7881;SDS011;3986;41.884;23.466;2022-11-11T08:29:58;124.47;;;101.63;;
7881;SDS011;3986;41.884;23.466;2022-11-11T08:32:25;122.13;;;102.17;;
7881;SDS011;3986;41.884;23.466;2022-11-11T08:34:52;120.80;;;108.10;;
7881;SDS011;3986;41.884;23.466;2022-11-11T08:37:19;127.50;;;110.00;;
7881;SDS011;3986;41.884;23.466;2022-11-11T08:39:48;156.87;;;132.33;;
7881;SDS011;3986;41.884;23.466;2022-11-11T08:42:16;168.37;;;138.30;;
7881;SDS011;3986;41.884;23.466;2022-11-11T08:44:43;164.37;;;132.27;;
7881;SDS011;3986;41.884;23.466;2022-11-11T08:47:10;127.87;;;104.17;;
7881;SDS011;3986;41.884;23.466;2022-11-11T08:49:37;110.87;;;99.10;;
7881;SDS011;3986;41.884;23.466;2022-11-11T08:52:04;117.23;;;89.97;;
7881;SDS011;3986;41.884;23.466;2022-11-11T08:54:31;146.97;;;128.63;;
7881;SDS011;3986;41.884;23.466;2022-11-11T08:57:00;175.50;;;142.97;;
7881;SDS011;3986;41.884;23.466;2022-11-11T08:59:27;205.37;;;185.13;;
7881;SDS011;3986;41.884;23.466;2022-11-11T09:01:54;182.53;;;164.47;;
7881;SDS011;3986;41.884;23.466;2022-11-11T09:04:21;170.37;;;152.17;;
7881;SDS011;3986;41.884;23.466;2022-11-11T09:06:48;182.93;;;157.40;;
7881;SDS011;3986;41.884;23.466;2022-11-11T09:09:15;127.43;;;107.87;;
7881;SDS011;3986;41.884;23.466;2022-11-11T09:11:42;145.33;;;118.20;;
7881;SDS011;3986;41.884;23.466;2022-11-11T09:14:10;159.07;;;132.20;;
7881;SDS011;3986;41.884;23.466;2022-11-11T09:16:37;126.27;;;107.17;;
7881;SDS011;3986;41.884;23.466;2022-11-11T09:19:04;125.10;;;112.30;;
7881;SDS011;3986;41.884;23.466;2022-11-11T09:21:31;128.50;;;111.70;;
7881;SDS011;3986;41.884;23.466;2022-11-11T09:23:58;135.40;;;103.73;;
7881;SDS011;3986;41.884;23.466;2022-11-11T09:26:25;101.67;;;90.90;;
7881;SDS011;3986;41.884;23.466;2022-11-11T09:28:52;88.67;;;71.93;;
7881;SDS011;3986;41.884;23.466;2022-11-11T09:31:20;100.78;;;70.45;;
7881;SDS011;3986;41.884;23.466;2022-11-11T09:33:48;97.87;;;81.53;;
7881;SDS011;3986;41.884;23.466;2022-11-11T09:36:15;112.75;;;81.22;;
7881;SDS011;3986;41.884;23.466;2022-11-11T09:38:41;155.70;;;82.22;;
7881;SDS011;3986;41.884;23.466;2022-11-11T09:41:14;65.85;;;46.88;;
7881;SDS011;3986;41.884;23.466;2022-11-11T09:43:46;95.00;;;41.47;;
7881;SDS011;3986;41.884;23.466;2022-11-11T09:46:23;61.78;;;43.25;;
7881;SDS011;3986;41.884;23.466;2022-11-11T09:49:06;85.70;;;54.72;;
7881;SDS011;3986;41.884;23.466;2022-11-11T09:51:51;85.45;;;58.08;;
7881;SDS011;3986;41.884;23.466;2022-11-11T09:54:25;105.32;;;94.30;;
7881;SDS011;3986;41.884;23.466;2022-11-11T09:56:58;133.50;;;103.47;;
7881;SDS011;3986;41.884;23.466;2022-11-11T09:59:31;102.55;;;93.03;;
7881;SDS011;3986;41.884;23.466;2022-11-11T10:02:08;100.85;;;90.47;;
7881;SDS011;3986;41.884;23.466;2022-11-11T10:04:46;98.25;;;84.35;;
7881;SDS011;3986;41.884;23.466;2022-11-11T10:07:20;90.38;;;80.35;;
7881;SDS011;3986;41.884;23.466;2022-11-11T10:09:54;96.68;;;87.63;;
7881;SDS011;3986;41.884;23.466;2022-11-11T10:12:32;112.18;;;83.18;;
7881;SDS011;3986;41.884;23.466;2022-11-11T10:15:06;104.43;;;93.65;;
7881;SDS011;3986;41.884;23.466;2022-11-11T10:17:41;125.13;;;113.65;;
7881;SDS011;3986;41.884;23.466;2022-11-11T10:20:17;129.90;;;105.82;;
7881;SDS011;3986;41.884;23.466;2022-11-11T10:22:46;127.57;;;114.93;;
7881;SDS011;3986;41.884;23.466;2022-11-11T10:25:19;116.35;;;104.93;;
7881;SDS011;3986;41.884;23.466;2022-11-11T10:27:48;108.40;;;97.20;;
7881;SDS011;3986;41.884;23.466;2022-11-11T10:30:18;104.05;;;93.60;;
7881;SDS011;3986;41.884;23.466;2022-11-11T10:32:51;95.55;;;79.00;;
7881;SDS011;3986;41.884;23.466;2022-11-11T10:35:22;103.63;;;93.10;;
7881;SDS011;3986;41.884;23.466;2022-11-11T10:37:51;110.20;;;99.53;;
7881;SDS011;3986;41.884;23.466;2022-11-11T10:40:28;136.77;;;100.88;;
7881;SDS011;3986;41.884;23.466;2022-11-11T10:43:02;89.15;;;80.80;;
7881;SDS011;3986;41.884;23.466;2022-11-11T10:45:30;98.80;;;89.55;;
7881;SDS011;3986;41.884;23.466;2022-11-11T10:48:08;83.90;;;76.68;;
7881;SDS011;3986;41.884;23.466;2022-11-11T10:50:38;88.93;;;79.07;;
7881;SDS011;3986;41.884;23.466;2022-11-11T10:53:11;56.35;;;51.13;;
7881;SDS011;3986;41.884;23.466;2022-11-11T10:55:44;65.55;;;54.50;;
7881;SDS011;3986;41.884;23.466;2022-11-11T10:58:15;67.95;;;45.50;;
7881;SDS011;3986;41.884;23.466;2022-11-11T11:00:46;69.95;;;58.97;;
7881;SDS011;3986;41.884;23.466;2022-11-11T11:03:18;131.88;;;78.32;;
7881;SDS011;3986;41.884;23.466;2022-11-11T11:05:50;79.60;;;57.58;;
7881;SDS011;3986;41.884;23.466;2022-11-11T11:08:20;48.42;;;37.35;;
7881;SDS011;3986;41.884;23.466;2022-11-11T11:10:51;54.20;;;24.90;;
7881;SDS011;3986;41.884;23.466;2022-11-11T11:13:22;63.85;;;23.48;;
7881;SDS011;3986;41.884;23.466;2022-11-11T11:15:56;56.55;;;22.08;;
7881;SDS011;3986;41.884;23.466;2022-11-11T11:18:29;44.92;;;21.80;;
7881;SDS011;3986;41.884;23.466;2022-11-11T11:20:57;56.75;;;27.35;;
7881;SDS011;3986;41.884;23.466;2022-11-11T11:23:35;31.38;;;21.25;;
7881;SDS011;3986;41.884;23.466;2022-11-11T11:26:03;25.88;;;19.70;;
7881;SDS011;3986;41.884;23.466;2022-11-11T11:28:31;59.13;;;22.23;;
7881;SDS011;3986;41.884;23.466;2022-11-11T11:30:59;62.78;;;24.27;;
7881;SDS011;3986;41.884;23.466;2022-11-11T11:33:31;50.53;;;25.17;;
7881;SDS011;3986;41.884;23.466;2022-11-11T11:36:16;56.90;;;28.83;;
7881;SDS011;3986;41.884;23.466;2022-11-11T11:38:44;45.72;;;24.05;;
7881;SDS011;3986;41.884;23.466;2022-11-11T11:41:14;66.22;;;26.80;;
7881;SDS011;3986;41.884;23.466;2022-11-11T11:43:42;80.43;;;27.98;;
7881;SDS011;3986;41.884;23.466;2022-11-11T11:46:14;53.63;;;27.23;;
7881;SDS011;3986;41.884;23.466;2022-11-11T11:48:49;52.15;;;31.90;;
7881;SDS011;3986;41.884;23.466;2022-11-11T11:51:26;81.40;;;30.88;;
7881;SDS011;3986;41.884;23.466;2022-11-11T11:54:12;80.32;;;30.88;;
7881;SDS011;3986;41.884;23.466;2022-11-11T11:56:50;58.83;;;29.92;;
7881;SDS011;3986;41.884;23.466;2022-11-11T11:59:20;70.53;;;30.07;;
7881;SDS011;3986;41.884;23.466;2022-11-11T12:01:54;61.83;;;27.93;;
7881;SDS011;3986;41.884;23.466;2022-11-11T12:04:37;71.23;;;27.43;;
7881;SDS011;3986;41.884;23.466;2022-11-11T12:07:20;61.23;;;28.27;;
7881;SDS011;3986;41.884;23.466;2022-11-11T12:10:00;76.33;;;31.70;;
7881;SDS011;3986;41.884;23.466;2022-11-11T12:12:32;73.00;;;35.57;;
7881;SDS011;3986;41.884;23.466;2022-11-11T12:15:10;66.87;;;28.33;;
7881;SDS011;3986;41.884;23.466;2022-11-11T12:18:00;59.27;;;27.27;;
7881;SDS011;3986;41.884;23.466;2022-11-11T12:20:44;40.30;;;26.97;;
7881;SDS011;3986;41.884;23.466;2022-11-11T12:23:22;48.40;;;26.63;;
7881;SDS011;3986;41.884;23.466;2022-11-11T12:26:00;73.87;;;27.77;;
7881;SDS011;3986;41.884;23.466;2022-11-11T12:28:41;70.57;;;27.63;;
7881;SDS011;3986;41.884;23.466;2022-11-11T12:31:24;79.00;;;29.00;;
7881;SDS011;3986;41.884;23.466;2022-11-11T12:34:08;62.23;;;30.10;;
7881;SDS011;3986;41.884;23.466;2022-11-11T12:36:45;84.03;;;29.67;;
7881;SDS011;3986;41.884;23.466;2022-11-11T12:39:21;130.03;;;31.70;;
7881;SDS011;3986;41.884;23.466;2022-11-11T12:42:04;82.70;;;27.53;;
7881;SDS011;3986;41.884;23.466;2022-11-11T12:44:40;48.17;;;24.43;;
7881;SDS011;3986;41.884;23.466;2022-11-11T12:47:21;70.43;;;26.13;;
7881;SDS011;3986;41.884;23.466;2022-11-11T12:49:56;51.90;;;26.20;;
7881;SDS011;3986;41.884;23.466;2022-11-11T12:52:35;50.20;;;24.80;;
7881;SDS011;3986;41.884;23.466;2022-11-11T12:55:15;37.17;;;25.67;;
7881;SDS011;3986;41.884;23.466;2022-11-11T13:00:50;54.43;;;24.47;;
7881;SDS011;3986;41.884;23.466;2022-11-11T13:03:42;50.87;;;27.27;;
7881;SDS011;3986;41.884;23.466;2022-11-11T13:09:19;40.47;;;28.97;;
7881;SDS011;3986;41.884;23.466;2022-11-11T13:11:57;52.10;;;26.83;;
7881;SDS011;3986;41.884;23.466;2022-11-11T13:17:22;60.43;;;29.20;;
7881;SDS011;3986;41.884;23.466;2022-11-11T13:19:50;65.53;;;30.83;;
7881;SDS011;3986;41.884;23.466;2022-11-11T13:22:21;26.93;;;23.80;;
7881;SDS011;3986;41.884;23.466;2022-11-11T13:24:52;49.83;;;25.00;;
7881;SDS011;3986;41.884;23.466;2022-11-11T13:27:24;39.07;;;20.27;;
7881;SDS011;3986;41.884;23.466;2022-11-11T13:33:02;43.13;;;26.50;;
7881;SDS011;3986;41.884;23.466;2022-11-11T13:35:32;87.13;;;48.60;;
7881;SDS011;3986;41.884;23.466;2022-11-11T13:38:01;46.43;;;25.60;;
7881;SDS011;3986;41.884;23.466;2022-11-11T13:40:33;61.37;;;26.67;;
7881;SDS011;3986;41.884;23.466;2022-11-11T13:43:02;46.97;;;26.13;;
7881;SDS011;3986;41.884;23.466;2022-11-11T13:45:32;71.43;;;25.10;;
7881;SDS011;3986;41.884;23.466;2022-11-11T13:48:02;40.97;;;24.63;;
7881;SDS011;3986;41.884;23.466;2022-11-11T13:50:31;42.00;;;25.33;;
7881;SDS011;3986;41.884;23.466;2022-11-11T13:53:01;43.73;;;26.93;;
7881;SDS011;3986;41.884;23.466;2022-11-11T13:55:30;67.47;;;30.23;;
7881;SDS011;3986;41.884;23.466;2022-11-11T13:58:01;87.17;;;31.87;;
7881;SDS011;3986;41.884;23.466;2022-11-11T14:00:31;36.70;;;27.40;;
7881;SDS011;3986;41.884;23.466;2022-11-11T14:08:55;48.93;;;32.63;;
7881;SDS011;3986;41.884;23.466;2022-11-11T14:11:30;56.00;;;33.63;;
7881;SDS011;3986;41.884;23.466;2022-11-11T14:14:00;46.43;;;32.37;;
7881;SDS011;3986;41.884;23.466;2022-11-11T14:17:04;55.57;;;40.63;;
7881;SDS011;3986;41.884;23.466;2022-11-11T14:19:38;67.53;;;33.30;;
7881;SDS011;3986;41.884;23.466;2022-11-11T14:22:21;33.87;;;30.03;;
7881;SDS011;3986;41.884;23.466;2022-11-11T14:24:54;54.27;;;34.80;;
7881;SDS011;3986;41.884;23.466;2022-11-11T14:27:35;65.83;;;35.17;;
7881;SDS011;3986;41.884;23.466;2022-11-11T14:30:11;55.60;;;34.83;;
7881;SDS011;3986;41.884;23.466;2022-11-11T14:32:53;48.93;;;36.57;;
7881;SDS011;3986;41.884;23.466;2022-11-11T14:35:28;69.87;;;40.27;;
7881;SDS011;3986;41.884;23.466;2022-11-11T14:41:02;45.33;;;35.13;;
7881;SDS011;3986;41.884;23.466;2022-11-11T14:47:17;54.73;;;38.53;;
7881;SDS011;3986;41.884;23.466;2022-11-11T14:49:49;37.80;;;33.17;;
7881;SDS011;3986;41.884;23.466;2022-11-11T14:52:20;87.27;;;36.43;;
7881;SDS011;3986;41.884;23.466;2022-11-11T14:54:53;48.27;;;34.23;;
7881;SDS011;3986;41.884;23.466;2022-11-11T14:57:24;48.63;;;36.47;;
7881;SDS011;3986;41.884;23.466;2022-11-11T14:59:58;52.60;;;39.50;;
7881;SDS011;3986;41.884;23.466;2022-11-11T15:02:28;57.67;;;37.70;;
7881;SDS011;3986;41.884;23.466;2022-11-11T15:04:59;77.77;;;51.83;;
7881;SDS011;3986;41.884;23.466;2022-11-11T15:07:30;60.23;;;49.93;;
7881;SDS011;3986;41.884;23.466;2022-11-11T15:10:11;72.93;;;52.50;;
7881;SDS011;3986;41.884;23.466;2022-11-11T15:12:48;124.90;;;110.50;;
7881;SDS011;3986;41.884;23.466;2022-11-11T15:15:44;89.77;;;80.17;;
7881;SDS011;3986;41.884;23.466;2022-11-11T15:18:25;81.70;;;73.20;;
7881;SDS011;3986;41.884;23.466;2022-11-11T15:21:10;72.43;;;63.43;;
7881;SDS011;3986;41.884;23.466;2022-11-11T15:23:41;78.10;;;59.90;;
7881;SDS011;3986;41.884;23.466;2022-11-11T15:26:16;62.53;;;56.57;;
7881;SDS011;3986;41.884;23.466;2022-11-11T15:28:57;78.07;;;59.20;;
7881;SDS011;3986;41.884;23.466;2022-11-11T15:31:41;116.73;;;89.27;;
7881;SDS011;3986;41.884;23.466;2022-11-11T15:34:18;66.43;;;58.93;;
7881;SDS011;3986;41.884;23.466;2022-11-11T15:36:55;86.13;;;67.20;;
7881;SDS011;3986;41.884;23.466;2022-11-11T15:39:24;77.23;;;65.90;;
7881;SDS011;3986;41.884;23.466;2022-11-11T15:41:58;98.10;;;81.17;;
7881;SDS011;3986;41.884;23.466;2022-11-11T15:44:28;153.93;;;137.87;;
7881;SDS011;3986;41.884;23.466;2022-11-11T15:46:59;140.83;;;126.63;;
7881;SDS011;3986;41.884;23.466;2022-11-11T15:49:36;151.63;;;136.03;;
7881;SDS011;3986;41.884;23.466;2022-11-11T15:52:19;155.83;;;138.50;;
7881;SDS011;3986;41.884;23.466;2022-11-11T15:54:51;158.13;;;141.33;;
7881;SDS011;3986;41.884;23.466;2022-11-11T15:57:23;139.63;;;119.17;;
7881;SDS011;3986;41.884;23.466;2022-11-11T15:59:52;125.40;;;101.23;;
7881;SDS011;3986;41.884;23.466;2022-11-11T16:02:21;127.87;;;112.43;;
7881;SDS011;3986;41.884;23.466;2022-11-11T16:04:51;143.37;;;104.63;;
7881;SDS011;3986;41.884;23.466;2022-11-11T16:07:22;107.90;;;95.63;;
7881;SDS011;3986;41.884;23.466;2022-11-11T16:09:50;107.67;;;94.13;;
7881;SDS011;3986;41.884;23.466;2022-11-11T16:12:20;130.50;;;116.70;;
7881;SDS011;3986;41.884;23.466;2022-11-11T16:14:50;128.33;;;114.93;;
7881;SDS011;3986;41.884;23.466;2022-11-11T16:17:21;168.47;;;109.77;;
7881;SDS011;3986;41.884;23.466;2022-11-11T16:19:52;123.00;;;102.33;;
7881;SDS011;3986;41.884;23.466;2022-11-11T16:22:20;115.87;;;103.43;;
7881;SDS011;3986;41.884;23.466;2022-11-11T16:24:51;195.30;;;169.40;;
7881;SDS011;3986;41.884;23.466;2022-11-11T16:27:21;129.73;;;116.37;;
7881;SDS011;3986;41.884;23.466;2022-11-11T16:29:50;176.37;;;126.00;;
7881;SDS011;3986;41.884;23.466;2022-11-11T16:32:18;129.73;;;116.47;;
7881;SDS011;3986;41.884;23.466;2022-11-11T16:34:59;134.37;;;119.83;;
7881;SDS011;3986;41.884;23.466;2022-11-11T16:37:26;121.70;;;106.47;;
7881;SDS011;3986;41.884;23.466;2022-11-11T16:39:53;116.57;;;98.67;;
7881;SDS011;3986;41.884;23.466;2022-11-11T16:42:20;152.23;;;109.23;;
7881;SDS011;3986;41.884;23.466;2022-11-11T16:44:52;93.07;;;83.30;;
7881;SDS011;3986;41.884;23.466;2022-11-11T16:50:12;106.43;;;94.83;;
7881;SDS011;3986;41.884;23.466;2022-11-11T16:52:43;98.90;;;88.23;;
7881;SDS011;3986;41.884;23.466;2022-11-11T16:55:18;114.30;;;98.60;;
7881;SDS011;3986;41.884;23.466;2022-11-11T16:57:49;140.50;;;118.57;;
7881;SDS011;3986;41.884;23.466;2022-11-11T17:00:17;112.60;;;100.30;;
7881;SDS011;3986;41.884;23.466;2022-11-11T17:02:47;110.93;;;99.50;;
7881;SDS011;3986;41.884;23.466;2022-11-11T17:05:48;132.23;;;116.87;;
7881;SDS011;3986;41.884;23.466;2022-11-11T17:08:27;125.43;;;111.70;;
7881;SDS011;3986;41.884;23.466;2022-11-11T17:10:55;144.03;;;122.37;;
7881;SDS011;3986;41.884;23.466;2022-11-11T17:13:22;136.13;;;121.27;;
7881;SDS011;3986;41.884;23.466;2022-11-11T17:15:50;155.53;;;138.73;;
7881;SDS011;3986;41.884;23.466;2022-11-11T17:18:19;153.50;;;137.97;;
7881;SDS011;3986;41.884;23.466;2022-11-11T17:20:45;137.33;;;122.73;;
7881;SDS011;3986;41.884;23.466;2022-11-11T17:23:12;170.07;;;128.50;;
7881;SDS011;3986;41.884;23.466;2022-11-11T17:25:39;156.17;;;139.33;;
7881;SDS011;3986;41.884;23.466;2022-11-11T17:28:06;144.23;;;128.47;;
7881;SDS011;3986;41.884;23.466;2022-11-11T17:30:34;158.07;;;141.70;;
7881;SDS011;3986;41.884;23.466;2022-11-11T17:33:01;139.83;;;124.47;;
7881;SDS011;3986;41.884;23.466;2022-11-11T17:35:29;168.37;;;132.30;;
7881;SDS011;3986;41.884;23.466;2022-11-11T17:37:56;145.30;;;123.30;;
7881;SDS011;3986;41.884;23.466;2022-11-11T17:40:23;189.03;;;167.30;;
7881;SDS011;3986;41.884;23.466;2022-11-11T17:42:50;165.73;;;148.53;;
7881;SDS011;3986;41.884;23.466;2022-11-11T17:45:17;178.77;;;160.43;;
7881;SDS011;3986;41.884;23.466;2022-11-11T17:47:44;210.17;;;181.47;;
7881;SDS011;3986;41.884;23.466;2022-11-11T17:50:11;173.37;;;154.37;;
7881;SDS011;3986;41.884;23.466;2022-11-11T17:52:39;147.40;;;131.90;;
7881;SDS011;3986;41.884;23.466;2022-11-11T17:55:07;117.03;;;96.73;;
7881;SDS011;3986;41.884;23.466;2022-11-11T17:57:34;63.17;;;52.50;;
7881;SDS011;3986;41.884;23.466;2022-11-11T18:00:01;85.03;;;56.17;;
7881;SDS011;3986;41.884;23.466;2022-11-11T18:02:28;73.77;;;66.10;;
7881;SDS011;3986;41.884;23.466;2022-11-11T18:04:55;79.73;;;71.40;;
7881;SDS011;3986;41.884;23.466;2022-11-11T18:07:22;84.17;;;75.67;;
7881;SDS011;3986;41.884;23.466;2022-11-11T18:09:50;141.87;;;75.23;;
7881;SDS011;3986;41.884;23.466;2022-11-11T18:12:17;97.10;;;80.90;;
7881;SDS011;3986;41.884;23.466;2022-11-11T18:14:44;114.23;;;101.40;;
7881;SDS011;3986;41.884;23.466;2022-11-11T18:17:10;146.33;;;127.80;;
7881;SDS011;3986;41.884;23.466;2022-11-11T18:19:37;167.67;;;148.23;;
7881;SDS011;3986;41.884;23.466;2022-11-11T18:22:04;182.97;;;143.03;;
7881;SDS011;3986;41.884;23.466;2022-11-11T18:24:31;168.47;;;136.17;;
7881;SDS011;3986;41.884;23.466;2022-11-11T18:26:59;169.93;;;152.10;;
7881;SDS011;3986;41.884;23.466;2022-11-11T18:29:26;193.17;;;167.47;;
7881;SDS011;3986;41.884;23.466;2022-11-11T18:31:53;174.90;;;156.17;;
7881;SDS011;3986;41.884;23.466;2022-11-11T18:34:20;161.77;;;144.20;;
7881;SDS011;3986;41.884;23.466;2022-11-11T18:36:47;160.40;;;143.07;;
7881;SDS011;3986;41.884;23.466;2022-11-11T18:39:16;153.17;;;136.33;;
7881;SDS011;3986;41.884;23.466;2022-11-11T18:41:42;142.33;;;118.53;;
7881;SDS011;3986;41.884;23.466;2022-11-11T18:44:11;171.33;;;114.00;;
7881;SDS011;3986;41.884;23.466;2022-11-11T18:46:37;130.83;;;109.77;;
7881;SDS011;3986;41.884;23.466;2022-11-11T18:49:04;138.37;;;116.60;;
7881;SDS011;3986;41.884;23.466;2022-11-11T18:51:32;129.20;;;113.87;;
7881;SDS011;3986;41.884;23.466;2022-11-11T18:54:00;114.37;;;102.23;;
7881;SDS011;3986;41.884;23.466;2022-11-11T18:56:28;118.87;;;106.27;;
7881;SDS011;3986;41.884;23.466;2022-11-11T18:58:55;133.40;;;101.63;;
7881;SDS011;3986;41.884;23.466;2022-11-11T19:01:25;127.00;;;107.60;;
7881;SDS011;3986;41.884;23.466;2022-11-11T19:03:54;131.53;;;105.23;;
7881;SDS011;3986;41.884;23.466;2022-11-11T19:06:22;143.67;;;106.47;;
7881;SDS011;3986;41.884;23.466;2022-11-11T19:08:52;164.23;;;129.83;;
7881;SDS011;3986;41.884;23.466;2022-11-11T19:11:20;125.87;;;110.07;;
7881;SDS011;3986;41.884;23.466;2022-11-11T19:13:47;146.63;;;108.57;;
7881;SDS011;3986;41.884;23.466;2022-11-11T19:16:15;166.33;;;132.87;;
7881;SDS011;3986;41.884;23.466;2022-11-11T19:18:44;222.67;;;142.10;;
7881;SDS011;3986;41.884;23.466;2022-11-11T19:21:12;152.30;;;131.63;;
7881;SDS011;3986;41.884;23.466;2022-11-11T19:23:41;147.27;;;129.77;;
7881;SDS011;3986;41.884;23.466;2022-11-11T19:26:08;148.53;;;126.00;;
7881;SDS011;3986;41.884;23.466;2022-11-11T19:28:35;144.67;;;128.10;;
7881;SDS011;3986;41.884;23.466;2022-11-11T19:31:03;186.17;;;166.27;;
7881;SDS011;3986;41.884;23.466;2022-11-11T19:33:31;167.07;;;151.37;;
7881;SDS011;3986;41.884;23.466;2022-11-11T19:36:01;185.53;;;167.77;;
7881;SDS011;3986;41.884;23.466;2022-11-11T19:38:29;168.17;;;150.67;;
7881;SDS011;3986;41.884;23.466;2022-11-11T19:40:57;158.47;;;141.07;;
7881;SDS011;3986;41.884;23.466;2022-11-11T19:43:24;158.93;;;142.60;;
7881;SDS011;3986;41.884;23.466;2022-11-11T19:45:51;210.20;;;187.23;;
7881;SDS011;3986;41.884;23.466;2022-11-11T19:48:18;201.30;;;179.33;;
7881;SDS011;3986;41.884;23.466;2022-11-11T19:50:44;218.60;;;185.97;;
7881;SDS011;3986;41.884;23.466;2022-11-11T19:53:13;208.67;;;179.23;;
7881;SDS011;3986;41.884;23.466;2022-11-11T19:55:41;185.73;;;165.90;;
7881;SDS011;3986;41.884;23.466;2022-11-11T19:58:08;122.13;;;104.47;;
7881;SDS011;3986;41.884;23.466;2022-11-11T20:00:34;93.07;;;82.90;;
7881;SDS011;3986;41.884;23.466;2022-11-11T20:03:02;99.10;;;88.60;;
7881;SDS011;3986;41.884;23.466;2022-11-11T20:05:29;139.77;;;86.03;;
7881;SDS011;3986;41.884;23.466;2022-11-11T20:07:56;98.80;;;79.10;;
7881;SDS011;3986;41.884;23.466;2022-11-11T20:10:24;122.90;;;95.07;;
7881;SDS011;3986;41.884;23.466;2022-11-11T20:12:51;120.23;;;96.50;;
7881;SDS011;3986;41.884;23.466;2022-11-11T20:15:18;108.07;;;92.20;;
7881;SDS011;3986;41.884;23.466;2022-11-11T20:17:45;115.63;;;91.57;;
7881;SDS011;3986;41.884;23.466;2022-11-11T20:20:12;112.43;;;95.07;;
7881;SDS011;3986;41.884;23.466;2022-11-11T20:22:39;110.00;;;95.90;;
7881;SDS011;3986;41.884;23.466;2022-11-11T20:25:06;98.73;;;85.57;;
7881;SDS011;3986;41.884;23.466;2022-11-11T20:27:34;129.37;;;80.20;;
7881;SDS011;3986;41.884;23.466;2022-11-11T20:30:01;77.87;;;68.60;;
7881;SDS011;3986;41.884;23.466;2022-11-11T20:32:29;90.57;;;70.90;;
7881;SDS011;3986;41.884;23.466;2022-11-11T20:34:56;106.83;;;76.53;;
7881;SDS011;3986;41.884;23.466;2022-11-11T20:37:23;102.87;;;86.87;;
7881;SDS011;3986;41.884;23.466;2022-11-11T20:39:51;116.20;;;90.20;;
7881;SDS011;3986;41.884;23.466;2022-11-11T20:42:18;143.43;;;124.00;;
7881;SDS011;3986;41.884;23.466;2022-11-11T20:44:46;143.63;;;118.90;;
7881;SDS011;3986;41.884;23.466;2022-11-11T20:47:13;143.10;;;127.43;;
7881;SDS011;3986;41.884;23.466;2022-11-11T20:49:41;147.00;;;113.63;;
7881;SDS011;3986;41.884;23.466;2022-11-11T20:52:08;123.33;;;105.53;;
7881;SDS011;3986;41.884;23.466;2022-11-11T20:54:36;122.47;;;109.77;;
7881;SDS011;3986;41.884;23.466;2022-11-11T20:57:03;127.43;;;114.03;;
7881;SDS011;3986;41.884;23.466;2022-11-11T20:59:30;107.13;;;96.10;;
7881;SDS011;3986;41.884;23.466;2022-11-11T21:01:58;133.93;;;107.70;;
7881;SDS011;3986;41.884;23.466;2022-11-11T21:04:25;126.07;;;107.23;;
7881;SDS011;3986;41.884;23.466;2022-11-11T21:06:52;139.27;;;109.77;;
7881;SDS011;3986;41.884;23.466;2022-11-11T21:09:19;131.27;;;105.50;;
7881;SDS011;3986;41.884;23.466;2022-11-11T21:11:46;118.27;;;99.63;;
7881;SDS011;3986;41.884;23.466;2022-11-11T21:14:12;106.37;;;86.20;;